sensor_id;sensor_type;location;lat;lon;timestamp;P1;durP1;ratioP1;P2;durP2;ratioP2
64085;SDS011;50333;47.436;21.390;2023-01-13T00:01:26;22.08;;;14.55;;
64085;SDS011;50333;47.436;21.390;2023-01-13T00:03:55;20.15;;;14.73;;
64085;SDS011;50333;47.436;21.390;2023-01-13T00:06:23;18.98;;;14.52;;
64085;SDS011;50333;47.436;21.390;2023-01-13T00:09:00;20.40;;;14.38;;
64085;SDS011;50333;47.436;21.390;2023-01-13T00:11:28;19.00;;;14.18;;
64085;SDS011;50333;47.436;21.390;2023-01-13T00:13:56;21.95;;;15.18;;
64085;SDS011;50333;47.436;21.390;2023-01-13T00:16:23;22.27;;;15.65;;
64085;SDS011;50333;47.436;21.390;2023-01-13T00:18:51;21.67;;;16.02;;
64085;SDS011;50333;47.436;21.390;2023-01-13T00:21:20;19.25;;;15.00;;
64085;SDS011;50333;47.436;21.390;2023-01-13T00:23:53;23.55;;;15.20;;
64085;SDS011;50333;47.436;21.390;2023-01-13T00:26:23;23.00;;;14.95;;
64085;SDS011;50333;47.436;21.390;2023-01-13T00:31:24;22.52;;;13.30;;
64085;SDS011;50333;47.436;21.390;2023-01-13T00:33:57;21.58;;;14.68;;
64085;SDS011;50333;47.436;21.390;2023-01-13T00:36:27;20.12;;;14.32;;
64085;SDS011;50333;47.436;21.390;2023-01-13T00:38:57;23.77;;;15.37;;
64085;SDS011;50333;47.436;21.390;2023-01-13T00:41:25;22.90;;;15.05;;
64085;SDS011;50333;47.436;21.390;2023-01-13T00:43:54;21.58;;;15.13;;
64085;SDS011;50333;47.436;21.390;2023-01-13T00:46:21;26.35;;;15.55;;
64085;SDS011;50333;47.436;21.390;2023-01-13T00:48:49;24.30;;;14.13;;
64085;SDS011;50333;47.436;21.390;2023-01-13T00:51:19;30.37;;;16.12;;
64085;SDS011;50333;47.436;21.390;2023-01-13T00:53:48;23.50;;;13.82;;
64085;SDS011;50333;47.436;21.390;2023-01-13T00:56:19;23.83;;;13.67;;
64085;SDS011;50333;47.436;21.390;2023-01-13T00:59:05;24.02;;;13.75;;
64085;SDS011;50333;47.436;21.390;2023-01-13T01:01:33;24.50;;;13.60;;
64085;SDS011;50333;47.436;21.390;2023-01-13T01:04:00;21.10;;;13.30;;
64085;SDS011;50333;47.436;21.390;2023-01-13T01:06:28;22.83;;;13.80;;
64085;SDS011;50333;47.436;21.390;2023-01-13T01:08:56;20.85;;;13.27;;
64085;SDS011;50333;47.436;21.390;2023-01-13T01:11:26;24.73;;;13.20;;
64085;SDS011;50333;47.436;21.390;2023-01-13T01:13:56;21.60;;;12.07;;
64085;SDS011;50333;47.436;21.390;2023-01-13T01:16:26;21.17;;;13.55;;
64085;SDS011;50333;47.436;21.390;2023-01-13T01:18:56;23.60;;;13.02;;
64085;SDS011;50333;47.436;21.390;2023-01-13T01:21:24;27.30;;;13.30;;
64085;SDS011;50333;47.436;21.390;2023-01-13T01:23:54;21.40;;;14.05;;
64085;SDS011;50333;47.436;21.390;2023-01-13T01:26:25;23.35;;;13.77;;
64085;SDS011;50333;47.436;21.390;2023-01-13T01:28:55;24.00;;;13.93;;
64085;SDS011;50333;47.436;21.390;2023-01-13T01:31:24;27.62;;;13.57;;
64085;SDS011;50333;47.436;21.390;2023-01-13T01:33:53;19.00;;;12.47;;
64085;SDS011;50333;47.436;21.390;2023-01-13T01:36:22;21.87;;;13.90;;
64085;SDS011;50333;47.436;21.390;2023-01-13T01:41:24;29.83;;;14.13;;
64085;SDS011;50333;47.436;21.390;2023-01-13T01:47:00;23.92;;;14.27;;
64085;SDS011;50333;47.436;21.390;2023-01-13T01:49:22;20.42;;;12.25;;
64085;SDS011;50333;47.436;21.390;2023-01-13T01:52:12;22.85;;;13.07;;
64085;SDS011;50333;47.436;21.390;2023-01-13T02:00:44;23.87;;;14.00;;
64085;SDS011;50333;47.436;21.390;2023-01-13T02:03:12;24.37;;;14.73;;
64085;SDS011;50333;47.436;21.390;2023-01-13T02:05:42;25.15;;;15.90;;
64085;SDS011;50333;47.436;21.390;2023-01-13T02:08:10;26.37;;;16.23;;
64085;SDS011;50333;47.436;21.390;2023-01-13T02:10:40;24.87;;;16.27;;
64085;SDS011;50333;47.436;21.390;2023-01-13T02:13:11;28.10;;;17.70;;
64085;SDS011;50333;47.436;21.390;2023-01-13T02:15:47;29.48;;;16.75;;
64085;SDS011;50333;47.436;21.390;2023-01-13T02:18:55;31.40;;;16.95;;
64085;SDS011;50333;47.436;21.390;2023-01-13T02:21:42;27.98;;;16.62;;
64085;SDS011;50333;47.436;21.390;2023-01-13T02:35:49;30.25;;;17.70;;
64085;SDS011;50333;47.436;21.390;2023-01-13T02:38:29;27.70;;;15.95;;
64085;SDS011;50333;47.436;21.390;2023-01-13T02:41:06;33.35;;;17.37;;
64085;SDS011;50333;47.436;21.390;2023-01-13T02:44:01;30.65;;;17.15;;
64085;SDS011;50333;47.436;21.390;2023-01-13T02:49:16;30.25;;;17.20;;
64085;SDS011;50333;47.436;21.390;2023-01-13T02:51:50;29.27;;;17.95;;
64085;SDS011;50333;47.436;21.390;2023-01-13T02:54:22;27.35;;;16.60;;
64085;SDS011;50333;47.436;21.390;2023-01-13T02:56:53;32.10;;;18.30;;
64085;SDS011;50333;47.436;21.390;2023-01-13T02:59:24;27.17;;;17.67;;
64085;SDS011;50333;47.436;21.390;2023-01-13T03:01:54;28.48;;;18.40;;
64085;SDS011;50333;47.436;21.390;2023-01-13T03:10:10;32.50;;;19.17;;
64085;SDS011;50333;47.436;21.390;2023-01-13T03:12:47;29.95;;;19.00;;
64085;SDS011;50333;47.436;21.390;2023-01-13T03:20:25;32.63;;;19.02;;
64085;SDS011;50333;47.436;21.390;2023-01-13T03:28:36;30.27;;;19.00;;
64085;SDS011;50333;47.436;21.390;2023-01-13T03:31:11;27.70;;;16.55;;
64085;SDS011;50333;47.436;21.390;2023-01-13T03:34:05;29.27;;;17.58;;
64085;SDS011;50333;47.436;21.390;2023-01-13T03:36:39;29.00;;;18.52;;
64085;SDS011;50333;47.436;21.390;2023-01-13T03:39:11;30.35;;;17.27;;
64085;SDS011;50333;47.436;21.390;2023-01-13T03:41:53;31.48;;;17.92;;
64085;SDS011;50333;47.436;21.390;2023-01-13T03:44:28;29.65;;;16.65;;
64085;SDS011;50333;47.436;21.390;2023-01-13T03:47:06;25.10;;;17.45;;
64085;SDS011;50333;47.436;21.390;2023-01-13T03:49:55;28.12;;;17.55;;
64085;SDS011;50333;47.436;21.390;2023-01-13T03:52:43;31.37;;;17.85;;
64085;SDS011;50333;47.436;21.390;2023-01-13T03:57:50;31.27;;;17.17;;
64085;SDS011;50333;47.436;21.390;2023-01-13T04:00:30;30.37;;;17.50;;
64085;SDS011;50333;47.436;21.390;2023-01-13T04:03:08;27.85;;;17.02;;
64085;SDS011;50333;47.436;21.390;2023-01-13T04:05:40;30.00;;;17.42;;
64085;SDS011;50333;47.436;21.390;2023-01-13T04:08:15;27.15;;;17.55;;
64085;SDS011;50333;47.436;21.390;2023-01-13T04:10:51;33.63;;;19.50;;
64085;SDS011;50333;47.436;21.390;2023-01-13T04:13:41;29.58;;;16.90;;
64085;SDS011;50333;47.436;21.390;2023-01-13T04:16:11;27.00;;;16.33;;
64085;SDS011;50333;47.436;21.390;2023-01-13T04:18:39;30.65;;;17.70;;
64085;SDS011;50333;47.436;21.390;2023-01-13T04:21:08;35.05;;;18.73;;
64085;SDS011;50333;47.436;21.390;2023-01-13T04:23:35;26.83;;;16.70;;
64085;SDS011;50333;47.436;21.390;2023-01-13T04:26:03;29.20;;;16.92;;
64085;SDS011;50333;47.436;21.390;2023-01-13T04:28:31;29.58;;;16.95;;
64085;SDS011;50333;47.436;21.390;2023-01-13T04:31:01;32.20;;;18.80;;
64085;SDS011;50333;47.436;21.390;2023-01-13T04:33:28;28.58;;;17.65;;
64085;SDS011;50333;47.436;21.390;2023-01-13T04:35:56;29.33;;;17.45;;
64085;SDS011;50333;47.436;21.390;2023-01-13T04:38:24;35.30;;;17.02;;
64085;SDS011;50333;47.436;21.390;2023-01-13T04:40:52;29.02;;;16.65;;
64085;SDS011;50333;47.436;21.390;2023-01-13T04:43:19;31.10;;;17.37;;
64085;SDS011;50333;47.436;21.390;2023-01-13T04:45:47;28.12;;;15.90;;
64085;SDS011;50333;47.436;21.390;2023-01-13T04:48:15;31.60;;;16.98;;
64085;SDS011;50333;47.436;21.390;2023-01-13T04:50:43;30.05;;;16.65;;
64085;SDS011;50333;47.436;21.390;2023-01-13T04:53:11;25.88;;;16.25;;
64085;SDS011;50333;47.436;21.390;2023-01-13T04:55:38;26.58;;;15.77;;
64085;SDS011;50333;47.436;21.390;2023-01-13T04:58:07;28.35;;;16.48;;
64085;SDS011;50333;47.436;21.390;2023-01-13T05:00:36;28.77;;;15.65;;
64085;SDS011;50333;47.436;21.390;2023-01-13T05:03:04;29.40;;;16.10;;
64085;SDS011;50333;47.436;21.390;2023-01-13T05:05:32;24.77;;;14.75;;
64085;SDS011;50333;47.436;21.390;2023-01-13T05:07:59;27.25;;;15.05;;
64085;SDS011;50333;47.436;21.390;2023-01-13T05:10:27;23.38;;;15.80;;
64085;SDS011;50333;47.436;21.390;2023-01-13T05:12:55;23.60;;;13.75;;
64085;SDS011;50333;47.436;21.390;2023-01-13T05:15:42;24.52;;;13.88;;
64085;SDS011;50333;47.436;21.390;2023-01-13T05:18:31;23.55;;;14.38;;
64085;SDS011;50333;47.436;21.390;2023-01-13T05:20:59;23.95;;;13.30;;
64085;SDS011;50333;47.436;21.390;2023-01-13T05:23:27;21.95;;;14.40;;
64085;SDS011;50333;47.436;21.390;2023-01-13T05:26:13;21.70;;;13.43;;
64085;SDS011;50333;47.436;21.390;2023-01-13T05:28:41;21.55;;;13.70;;
64085;SDS011;50333;47.436;21.390;2023-01-13T05:31:09;26.05;;;14.18;;
64085;SDS011;50333;47.436;21.390;2023-01-13T05:33:38;22.35;;;12.90;;
64085;SDS011;50333;47.436;21.390;2023-01-13T05:36:06;19.95;;;12.68;;
64085;SDS011;50333;47.436;21.390;2023-01-13T05:38:34;21.17;;;13.20;;
64085;SDS011;50333;47.436;21.390;2023-01-13T05:41:02;20.92;;;13.23;;
64085;SDS011;50333;47.436;21.390;2023-01-13T05:43:48;19.90;;;12.63;;
64085;SDS011;50333;47.436;21.390;2023-01-13T05:46:16;24.73;;;13.55;;
64085;SDS011;50333;47.436;21.390;2023-01-13T05:48:44;23.48;;;14.45;;
64085;SDS011;50333;47.436;21.390;2023-01-13T05:51:12;25.33;;;14.25;;
64085;SDS011;50333;47.436;21.390;2023-01-13T05:53:40;27.80;;;14.45;;
64085;SDS011;50333;47.436;21.390;2023-01-13T05:56:08;28.08;;;15.40;;
64085;SDS011;50333;47.436;21.390;2023-01-13T05:58:37;26.75;;;14.57;;
64085;SDS011;50333;47.436;21.390;2023-01-13T06:01:05;23.70;;;14.30;;
64085;SDS011;50333;47.436;21.390;2023-01-13T06:03:35;34.45;;;15.05;;
64085;SDS011;50333;47.436;21.390;2023-01-13T06:06:03;28.85;;;15.35;;
64085;SDS011;50333;47.436;21.390;2023-01-13T06:08:31;26.48;;;15.27;;
64085;SDS011;50333;47.436;21.390;2023-01-13T06:10:59;27.58;;;14.55;;
64085;SDS011;50333;47.436;21.390;2023-01-13T06:13:27;24.37;;;14.55;;
64085;SDS011;50333;47.436;21.390;2023-01-13T06:15:55;27.98;;;16.35;;
64085;SDS011;50333;47.436;21.390;2023-01-13T06:18:25;23.48;;;15.18;;
64085;SDS011;50333;47.436;21.390;2023-01-13T06:20:53;24.83;;;14.13;;
64085;SDS011;50333;47.436;21.390;2023-01-13T06:23:21;28.95;;;16.15;;
64085;SDS011;50333;47.436;21.390;2023-01-13T06:28:29;25.85;;;14.32;;
64085;SDS011;50333;47.436;21.390;2023-01-13T06:31:00;25.15;;;15.80;;
64085;SDS011;50333;47.436;21.390;2023-01-13T06:33:32;26.25;;;17.33;;
64085;SDS011;50333;47.436;21.390;2023-01-13T06:36:18;32.22;;;18.48;;
64085;SDS011;50333;47.436;21.390;2023-01-13T06:38:51;29.05;;;16.90;;
64085;SDS011;50333;47.436;21.390;2023-01-13T06:41:23;29.92;;;16.35;;
64085;SDS011;50333;47.436;21.390;2023-01-13T06:44:11;26.60;;;15.65;;
64085;SDS011;50333;47.436;21.390;2023-01-13T06:46:39;23.08;;;15.57;;
64085;SDS011;50333;47.436;21.390;2023-01-13T06:49:07;29.63;;;16.55;;
64085;SDS011;50333;47.436;21.390;2023-01-13T06:51:35;28.83;;;17.27;;
64085;SDS011;50333;47.436;21.390;2023-01-13T06:54:03;27.10;;;16.80;;
64085;SDS011;50333;47.436;21.390;2023-01-13T06:56:31;26.98;;;17.27;;
64085;SDS011;50333;47.436;21.390;2023-01-13T06:58:59;27.20;;;17.02;;
64085;SDS011;50333;47.436;21.390;2023-01-13T07:01:27;25.95;;;17.48;;
64085;SDS011;50333;47.436;21.390;2023-01-13T07:03:55;28.92;;;16.50;;
64085;SDS011;50333;47.436;21.390;2023-01-13T07:06:24;28.48;;;16.48;;
64085;SDS011;50333;47.436;21.390;2023-01-13T07:08:52;26.58;;;16.55;;
64085;SDS011;50333;47.436;21.390;2023-01-13T07:11:20;23.77;;;16.27;;
64085;SDS011;50333;47.436;21.390;2023-01-13T07:13:47;26.35;;;16.52;;
64085;SDS011;50333;47.436;21.390;2023-01-13T07:16:34;26.65;;;16.65;;
64085;SDS011;50333;47.436;21.390;2023-01-13T07:19:02;26.15;;;15.88;;
64085;SDS011;50333;47.436;21.390;2023-01-13T07:21:30;24.85;;;14.77;;
64085;SDS011;50333;47.436;21.390;2023-01-13T07:23:58;21.85;;;15.23;;
64085;SDS011;50333;47.436;21.390;2023-01-13T07:26:26;23.27;;;15.02;;
64085;SDS011;50333;47.436;21.390;2023-01-13T07:28:53;22.20;;;15.98;;
64085;SDS011;50333;47.436;21.390;2023-01-13T07:31:21;23.12;;;16.02;;
64085;SDS011;50333;47.436;21.390;2023-01-13T07:33:49;24.45;;;16.10;;
64085;SDS011;50333;47.436;21.390;2023-01-13T07:36:17;25.58;;;16.48;;
64085;SDS011;50333;47.436;21.390;2023-01-13T07:38:45;30.08;;;16.10;;
64085;SDS011;50333;47.436;21.390;2023-01-13T07:41:13;19.20;;;14.40;;
64085;SDS011;50333;47.436;21.390;2023-01-13T07:44:03;25.40;;;14.63;;
64085;SDS011;50333;47.436;21.390;2023-01-13T07:46:32;22.33;;;16.30;;
64085;SDS011;50333;47.436;21.390;2023-01-13T07:49:00;40.72;;;27.83;;
64085;SDS011;50333;47.436;21.390;2023-01-13T07:51:28;39.47;;;29.45;;
64085;SDS011;50333;47.436;21.390;2023-01-13T07:53:55;25.77;;;17.80;;
64085;SDS011;50333;47.436;21.390;2023-01-13T07:56:24;22.27;;;14.95;;
64085;SDS011;50333;47.436;21.390;2023-01-13T07:58:51;23.80;;;14.35;;
64085;SDS011;50333;47.436;21.390;2023-01-13T08:01:19;20.00;;;13.95;;
64085;SDS011;50333;47.436;21.390;2023-01-13T08:03:48;20.92;;;13.68;;
64085;SDS011;50333;47.436;21.390;2023-01-13T08:06:15;18.87;;;14.87;;
64085;SDS011;50333;47.436;21.390;2023-01-13T08:08:43;26.02;;;14.57;;
64085;SDS011;50333;47.436;21.390;2023-01-13T08:11:11;24.45;;;15.85;;
64085;SDS011;50333;47.436;21.390;2023-01-13T08:13:39;23.70;;;15.50;;
64085;SDS011;50333;47.436;21.390;2023-01-13T08:16:07;23.80;;;14.73;;
64085;SDS011;50333;47.436;21.390;2023-01-13T08:18:38;24.35;;;15.38;;
64085;SDS011;50333;47.436;21.390;2023-01-13T08:21:07;25.17;;;14.00;;
64085;SDS011;50333;47.436;21.390;2023-01-13T08:23:38;33.38;;;14.75;;
64085;SDS011;50333;47.436;21.390;2023-01-13T08:26:07;26.35;;;15.18;;
64085;SDS011;50333;47.436;21.390;2023-01-13T08:28:38;23.77;;;15.30;;
64085;SDS011;50333;47.436;21.390;2023-01-13T08:31:10;24.00;;;15.38;;
64085;SDS011;50333;47.436;21.390;2023-01-13T08:33:43;23.55;;;14.85;;
64085;SDS011;50333;47.436;21.390;2023-01-13T08:36:11;27.67;;;14.93;;
64085;SDS011;50333;47.436;21.390;2023-01-13T08:38:40;22.83;;;14.43;;
64085;SDS011;50333;47.436;21.390;2023-01-13T08:41:09;23.23;;;14.30;;
64085;SDS011;50333;47.436;21.390;2023-01-13T08:43:38;26.52;;;15.75;;
64085;SDS011;50333;47.436;21.390;2023-01-13T08:46:06;42.22;;;16.60;;
64085;SDS011;50333;47.436;21.390;2023-01-13T08:48:34;28.00;;;13.70;;
64085;SDS011;50333;47.436;21.390;2023-01-13T08:51:03;24.30;;;14.07;;
64085;SDS011;50333;47.436;21.390;2023-01-13T08:53:32;35.70;;;17.23;;
64085;SDS011;50333;47.436;21.390;2023-01-13T08:56:00;20.35;;;13.18;;
64085;SDS011;50333;47.436;21.390;2023-01-13T08:58:28;20.85;;;12.13;;
64085;SDS011;50333;47.436;21.390;2023-01-13T09:00:56;21.17;;;13.70;;
64085;SDS011;50333;47.436;21.390;2023-01-13T09:03:24;19.50;;;13.25;;
64085;SDS011;50333;47.436;21.390;2023-01-13T09:05:52;21.65;;;12.85;;
64085;SDS011;50333;47.436;21.390;2023-01-13T09:08:20;20.55;;;12.95;;
64085;SDS011;50333;47.436;21.390;2023-01-13T09:10:47;18.02;;;12.37;;
64085;SDS011;50333;47.436;21.390;2023-01-13T09:13:18;24.27;;;15.37;;
64085;SDS011;50333;47.436;21.390;2023-01-13T09:15:48;21.30;;;14.50;;
64085;SDS011;50333;47.436;21.390;2023-01-13T09:18:16;17.27;;;11.18;;
64085;SDS011;50333;47.436;21.390;2023-01-13T09:20:43;17.37;;;11.98;;
64085;SDS011;50333;47.436;21.390;2023-01-13T09:23:11;20.98;;;12.57;;
64085;SDS011;50333;47.436;21.390;2023-01-13T09:25:39;19.70;;;13.00;;
64085;SDS011;50333;47.436;21.390;2023-01-13T09:28:07;22.60;;;13.65;;
64085;SDS011;50333;47.436;21.390;2023-01-13T09:30:35;22.05;;;13.57;;
64085;SDS011;50333;47.436;21.390;2023-01-13T09:33:03;21.05;;;12.77;;
64085;SDS011;50333;47.436;21.390;2023-01-13T09:35:50;16.33;;;11.63;;
64085;SDS011;50333;47.436;21.390;2023-01-13T09:38:18;22.37;;;12.95;;
64085;SDS011;50333;47.436;21.390;2023-01-13T09:40:46;19.00;;;12.77;;
64085;SDS011;50333;47.436;21.390;2023-01-13T09:43:17;18.30;;;11.85;;
64085;SDS011;50333;47.436;21.390;2023-01-13T09:46:15;16.48;;;11.57;;
64085;SDS011;50333;47.436;21.390;2023-01-13T09:49:04;15.50;;;10.43;;
64085;SDS011;50333;47.436;21.390;2023-01-13T09:54:09;18.25;;;11.95;;
64085;SDS011;50333;47.436;21.390;2023-01-13T09:56:42;17.55;;;11.65;;
64085;SDS011;50333;47.436;21.390;2023-01-13T09:59:10;17.20;;;11.70;;
64085;SDS011;50333;47.436;21.390;2023-01-13T10:04:28;16.85;;;12.45;;
64085;SDS011;50333;47.436;21.390;2023-01-13T10:07:00;15.73;;;11.63;;
64085;SDS011;50333;47.436;21.390;2023-01-13T10:09:33;20.45;;;12.05;;
64085;SDS011;50333;47.436;21.390;2023-01-13T10:12:24;18.02;;;11.52;;
64085;SDS011;50333;47.436;21.390;2023-01-13T10:15:15;16.45;;;11.05;;
64085;SDS011;50333;47.436;21.390;2023-01-13T10:17:57;16.83;;;11.43;;
64085;SDS011;50333;47.436;21.390;2023-01-13T10:20:42;13.20;;;10.52;;
64085;SDS011;50333;47.436;21.390;2023-01-13T10:23:41;19.33;;;11.80;;
64085;SDS011;50333;47.436;21.390;2023-01-13T10:26:19;17.45;;;11.60;;
64085;SDS011;50333;47.436;21.390;2023-01-13T10:29:00;16.92;;;12.27;;
64085;SDS011;50333;47.436;21.390;2023-01-13T10:31:28;22.25;;;12.77;;
64085;SDS011;50333;47.436;21.390;2023-01-13T10:34:00;17.52;;;12.18;;
64085;SDS011;50333;47.436;21.390;2023-01-13T10:36:30;20.83;;;12.02;;
64085;SDS011;50333;47.436;21.390;2023-01-13T10:39:08;17.48;;;13.62;;
64085;SDS011;50333;47.436;21.390;2023-01-13T10:41:41;19.98;;;12.23;;
64085;SDS011;50333;47.436;21.390;2023-01-13T10:44:16;36.90;;;13.25;;
64085;SDS011;50333;47.436;21.390;2023-01-13T10:46:52;18.52;;;13.62;;
64085;SDS011;50333;47.436;21.390;2023-01-13T10:49:28;18.62;;;12.45;;
64085;SDS011;50333;47.436;21.390;2023-01-13T10:51:59;17.10;;;11.45;;
64085;SDS011;50333;47.436;21.390;2023-01-13T10:54:28;15.60;;;11.73;;
64085;SDS011;50333;47.436;21.390;2023-01-13T10:59:47;20.73;;;11.10;;
64085;SDS011;50333;47.436;21.390;2023-01-13T11:02:24;12.80;;;10.45;;
64085;SDS011;50333;47.436;21.390;2023-01-13T11:07:33;16.98;;;11.38;;
64085;SDS011;50333;47.436;21.390;2023-01-13T11:15:38;17.52;;;11.02;;
64085;SDS011;50333;47.436;21.390;2023-01-13T11:20:43;14.57;;;10.48;;
64085;SDS011;50333;47.436;21.390;2023-01-13T11:23:21;22.10;;;12.60;;
64085;SDS011;50333;47.436;21.390;2023-01-13T11:26:40;16.37;;;11.90;;
64085;SDS011;50333;47.436;21.390;2023-01-13T11:28:59;17.23;;;12.60;;
64085;SDS011;50333;47.436;21.390;2023-01-13T11:31:38;15.10;;;11.65;;
64085;SDS011;50333;47.436;21.390;2023-01-13T11:34:31;15.10;;;11.93;;
64085;SDS011;50333;47.436;21.390;2023-01-13T11:37:11;14.70;;;10.85;;
64085;SDS011;50333;47.436;21.390;2023-01-13T11:47:44;13.27;;;10.23;;
64085;SDS011;50333;47.436;21.390;2023-01-13T11:55:54;16.80;;;11.00;;
64085;SDS011;50333;47.436;21.390;2023-01-13T12:15:00;17.52;;;11.05;;
64085;SDS011;50333;47.436;21.390;2023-01-13T12:20:25;17.60;;;12.00;;
64085;SDS011;50333;47.436;21.390;2023-01-13T12:26:16;19.00;;;11.95;;
64085;SDS011;50333;47.436;21.390;2023-01-13T12:28:48;18.12;;;12.60;;
64085;SDS011;50333;47.436;21.390;2023-01-13T12:31:21;16.48;;;12.48;;
64085;SDS011;50333;47.436;21.390;2023-01-13T12:36:36;14.30;;;11.07;;
64085;SDS011;50333;47.436;21.390;2023-01-13T12:39:13;16.95;;;11.12;;
64085;SDS011;50333;47.436;21.390;2023-01-13T12:41:59;18.50;;;13.35;;
64085;SDS011;50333;47.436;21.390;2023-01-13T12:45:15;15.43;;;10.93;;
64085;SDS011;50333;47.436;21.390;2023-01-13T12:47:48;20.50;;;11.95;;
64085;SDS011;50333;47.436;21.390;2023-01-13T12:52:52;20.05;;;12.57;;
64085;SDS011;50333;47.436;21.390;2023-01-13T12:55:33;18.67;;;12.07;;
64085;SDS011;50333;47.436;21.390;2023-01-13T13:05:59;21.85;;;12.48;;
64085;SDS011;50333;47.436;21.390;2023-01-13T13:14:11;14.05;;;10.25;;
64085;SDS011;50333;47.436;21.390;2023-01-13T13:16:44;14.60;;;10.60;;
64085;SDS011;50333;47.436;21.390;2023-01-13T13:22:14;15.35;;;10.15;;
64085;SDS011;50333;47.436;21.390;2023-01-13T13:24:40;16.45;;;10.15;;
64085;SDS011;50333;47.436;21.390;2023-01-13T13:27:24;15.82;;;10.10;;
64085;SDS011;50333;47.436;21.390;2023-01-13T13:35:48;39.50;;;11.25;;
64085;SDS011;50333;47.436;21.390;2023-01-13T13:38:41;17.50;;;9.90;;
64085;SDS011;50333;47.436;21.390;2023-01-13T13:41:33;17.92;;;9.90;;
64085;SDS011;50333;47.436;21.390;2023-01-13T13:44:37;13.65;;;9.25;;
64085;SDS011;50333;47.436;21.390;2023-01-13T13:47:36;13.27;;;9.50;;
64085;SDS011;50333;47.436;21.390;2023-01-13T13:50:13;18.50;;;9.63;;
64085;SDS011;50333;47.436;21.390;2023-01-13T13:52:48;16.10;;;9.27;;
64085;SDS011;50333;47.436;21.390;2023-01-13T13:55:23;27.25;;;9.70;;
64085;SDS011;50333;47.436;21.390;2023-01-13T13:57:55;22.50;;;10.70;;
64085;SDS011;50333;47.436;21.390;2023-01-13T14:00:29;19.67;;;9.80;;
64085;SDS011;50333;47.436;21.390;2023-01-13T14:03:01;14.25;;;9.77;;
64085;SDS011;50333;47.436;21.390;2023-01-13T14:05:51;15.52;;;9.57;;
64085;SDS011;50333;47.436;21.390;2023-01-13T14:08:39;15.43;;;9.52;;
64085;SDS011;50333;47.436;21.390;2023-01-13T14:11:32;14.52;;;9.88;;
64085;SDS011;50333;47.436;21.390;2023-01-13T14:14:04;14.45;;;10.30;;
64085;SDS011;50333;47.436;21.390;2023-01-13T14:16:33;13.70;;;9.23;;
64085;SDS011;50333;47.436;21.390;2023-01-13T14:21:32;14.07;;;9.07;;
64085;SDS011;50333;47.436;21.390;2023-01-13T14:24:14;14.77;;;9.80;;
64085;SDS011;50333;47.436;21.390;2023-01-13T14:26:42;15.80;;;9.88;;
64085;SDS011;50333;47.436;21.390;2023-01-13T14:29:12;18.80;;;9.85;;
64085;SDS011;50333;47.436;21.390;2023-01-13T14:31:45;14.30;;;9.68;;
64085;SDS011;50333;47.436;21.390;2023-01-13T14:34:13;15.38;;;9.52;;
64085;SDS011;50333;47.436;21.390;2023-01-13T14:37:00;14.98;;;9.80;;
64085;SDS011;50333;47.436;21.390;2023-01-13T14:39:38;12.60;;;9.55;;
64085;SDS011;50333;47.436;21.390;2023-01-13T14:42:13;17.12;;;9.23;;
64085;SDS011;50333;47.436;21.390;2023-01-13T14:44:44;15.45;;;7.97;;
64085;SDS011;50333;47.436;21.390;2023-01-13T14:52:48;13.90;;;9.07;;
64085;SDS011;50333;47.436;21.390;2023-01-13T15:00:47;11.95;;;8.88;;
64085;SDS011;50333;47.436;21.390;2023-01-13T15:03:19;17.05;;;9.15;;
64085;SDS011;50333;47.436;21.390;2023-01-13T15:05:48;15.57;;;9.57;;
64085;SDS011;50333;47.436;21.390;2023-01-13T15:08:21;15.43;;;9.75;;
64085;SDS011;50333;47.436;21.390;2023-01-13T15:11:03;19.75;;;10.18;;
64085;SDS011;50333;47.436;21.390;2023-01-13T15:16:20;15.55;;;8.90;;
64085;SDS011;50333;47.436;21.390;2023-01-13T15:18:52;11.82;;;9.02;;
64085;SDS011;50333;47.436;21.390;2023-01-13T15:21:21;11.30;;;8.40;;
64085;SDS011;50333;47.436;21.390;2023-01-13T15:23:49;18.60;;;8.45;;
64085;SDS011;50333;47.436;21.390;2023-01-13T15:26:22;13.05;;;8.90;;
64085;SDS011;50333;47.436;21.390;2023-01-13T15:28:53;14.48;;;9.45;;
64085;SDS011;50333;47.436;21.390;2023-01-13T15:31:23;11.68;;;8.52;;
64085;SDS011;50333;47.436;21.390;2023-01-13T15:33:52;13.30;;;8.65;;
64085;SDS011;50333;47.436;21.390;2023-01-13T15:38:51;14.02;;;7.50;;
64085;SDS011;50333;47.436;21.390;2023-01-13T15:41:19;10.98;;;8.05;;
64085;SDS011;50333;47.436;21.390;2023-01-13T15:44:10;12.95;;;8.45;;
64085;SDS011;50333;47.436;21.390;2023-01-13T15:46:58;19.37;;;10.77;;
64085;SDS011;50333;47.436;21.390;2023-01-13T15:52:04;11.95;;;8.32;;
64085;SDS011;50333;47.436;21.390;2023-01-13T15:54:49;18.52;;;9.00;;
64085;SDS011;50333;47.436;21.390;2023-01-13T15:59:57;17.77;;;9.23;;
64085;SDS011;50333;47.436;21.390;2023-01-13T16:02:33;14.13;;;10.45;;
64085;SDS011;50333;47.436;21.390;2023-01-13T16:05:01;14.75;;;10.48;;
64085;SDS011;50333;47.436;21.390;2023-01-13T16:07:28;18.10;;;11.60;;
64085;SDS011;50333;47.436;21.390;2023-01-13T16:09:56;19.02;;;11.60;;
64085;SDS011;50333;47.436;21.390;2023-01-13T16:12:26;19.95;;;12.63;;
64085;SDS011;50333;47.436;21.390;2023-01-13T16:14:53;21.92;;;12.50;;
64085;SDS011;50333;47.436;21.390;2023-01-13T16:17:22;19.37;;;12.88;;
64085;SDS011;50333;47.436;21.390;2023-01-13T16:19:52;20.48;;;13.52;;
64085;SDS011;50333;47.436;21.390;2023-01-13T16:22:20;21.35;;;14.15;;
64085;SDS011;50333;47.436;21.390;2023-01-13T16:24:49;19.50;;;13.27;;
64085;SDS011;50333;47.436;21.390;2023-01-13T16:27:18;19.55;;;13.95;;
64085;SDS011;50333;47.436;21.390;2023-01-13T16:29:48;25.10;;;15.48;;
64085;SDS011;50333;47.436;21.390;2023-01-13T16:32:17;42.70;;;29.80;;
64085;SDS011;50333;47.436;21.390;2023-01-13T16:34:47;27.27;;;19.25;;
64085;SDS011;50333;47.436;21.390;2023-01-13T16:37:19;32.22;;;20.10;;
64085;SDS011;50333;47.436;21.390;2023-01-13T16:39:52;28.50;;;18.73;;
64085;SDS011;50333;47.436;21.390;2023-01-13T16:42:21;29.05;;;17.52;;
64085;SDS011;50333;47.436;21.390;2023-01-13T16:44:49;28.05;;;18.83;;
64085;SDS011;50333;47.436;21.390;2023-01-13T16:47:19;28.65;;;18.67;;
64085;SDS011;50333;47.436;21.390;2023-01-13T16:49:52;34.00;;;18.90;;
64085;SDS011;50333;47.436;21.390;2023-01-13T16:52:20;30.98;;;20.75;;
64085;SDS011;50333;47.436;21.390;2023-01-13T16:54:48;39.10;;;22.48;;
64085;SDS011;50333;47.436;21.390;2023-01-13T16:57:16;33.78;;;22.15;;
64085;SDS011;50333;47.436;21.390;2023-01-13T16:59:44;36.35;;;21.70;;
64085;SDS011;50333;47.436;21.390;2023-01-13T17:02:13;32.97;;;19.98;;
64085;SDS011;50333;47.436;21.390;2023-01-13T17:04:41;28.80;;;18.67;;
64085;SDS011;50333;47.436;21.390;2023-01-13T17:07:14;28.98;;;20.27;;
64085;SDS011;50333;47.436;21.390;2023-01-13T17:09:43;32.00;;;20.02;;
64085;SDS011;50333;47.436;21.390;2023-01-13T17:12:11;34.85;;;21.48;;
64085;SDS011;50333;47.436;21.390;2023-01-13T17:14:39;34.15;;;20.37;;
64085;SDS011;50333;47.436;21.390;2023-01-13T17:17:19;32.10;;;21.20;;
64085;SDS011;50333;47.436;21.390;2023-01-13T17:22:19;28.38;;;17.95;;